createdAt,value
2019-02-18T00:00:37.883Z,11.80
2019-02-18T00:03:07.802Z,12.57
2019-02-18T00:05:36.479Z,10.10
2019-02-18T00:08:05.412Z,11.70
2019-02-18T00:10:34.031Z,11.73
2019-02-18T00:13:02.713Z,10.30
2019-02-18T00:15:31.403Z,10.90
2019-02-18T00:18:00.089Z,10.33
2019-02-18T00:20:28.764Z,8.60
2019-02-18T00:22:57.439Z,9.73
2019-02-18T00:25:26.113Z,9.43
2019-02-18T00:27:54.772Z,9.90
2019-02-18T00:30:23.457Z,9.03
2019-02-18T00:32:52.161Z,9.57
2019-02-18T00:35:20.791Z,11.13
2019-02-18T00:37:49.538Z,10.53
2019-02-18T00:40:18.236Z,11.57
2019-02-18T00:42:46.897Z,10.40
2019-02-18T00:45:15.571Z,12.13
2019-02-18T00:47:44.359Z,11.07
2019-02-18T00:50:13.025Z,10.87
2019-02-18T00:52:41.704Z,10.33
2019-02-18T00:55:10.362Z,12.37
2019-02-18T00:57:39.047Z,11.30
2019-02-18T01:00:11.085Z,12.53
2019-02-18T01:02:39.780Z,11.47
2019-02-18T01:05:08.663Z,12.10
2019-02-18T01:07:37.359Z,11.70
2019-02-18T01:10:08.920Z,10.10
2019-02-18T01:12:37.584Z,10.77
2019-02-18T01:15:09.397Z,10.47
2019-02-18T01:17:38.075Z,12.73
2019-02-18T01:20:09.600Z,10.87
2019-02-18T01:22:38.296Z,11.10
2019-02-18T01:25:08.866Z,11.03
2019-02-18T01:27:37.535Z,11.60
2019-02-18T01:30:09.378Z,11.20
2019-02-18T01:32:38.072Z,10.93
2019-02-18T01:35:06.936Z,11.50
2019-02-18T01:37:44.912Z,11.83
2019-02-18T01:40:08.952Z,11.33
2019-02-18T01:42:37.624Z,10.80
2019-02-18T01:45:09.136Z,11.57
2019-02-18T01:47:37.789Z,10.47
2019-02-18T01:50:09.672Z,12.10
2019-02-18T01:52:38.367Z,12.57
2019-02-18T01:55:08.145Z,13.40
2019-02-18T01:57:36.806Z,11.20
2019-02-18T02:00:08.891Z,12.30
2019-02-18T02:02:37.560Z,12.43
2019-02-18T02:05:06.635Z,11.03
2019-02-18T02:07:35.406Z,11.70
2019-02-18T02:10:05.469Z,11.03
2019-02-18T02:12:34.154Z,10.03
2019-02-18T02:15:02.831Z,10.30
2019-02-18T02:17:31.494Z,9.90
2019-02-18T02:20:00.360Z,10.20
2019-02-18T02:22:29.020Z,10.20
2019-02-18T02:24:57.707Z,11.17
2019-02-18T02:27:26.383Z,12.40
2019-02-18T02:29:55.047Z,13.03
2019-02-18T02:32:23.750Z,12.77
2019-02-18T02:34:52.416Z,12.93
2019-02-18T02:37:21.091Z,12.70
2019-02-18T02:39:49.760Z,12.10
2019-02-18T02:42:18.427Z,11.67
2019-02-18T02:44:47.097Z,10.87
2019-02-18T02:47:15.756Z,10.50
2019-02-18T02:49:44.465Z,10.40
2019-02-18T02:52:13.138Z,13.27
2019-02-18T02:54:41.872Z,10.63
2019-02-18T02:57:10.538Z,11.60
2019-02-18T02:59:39.206Z,11.97
2019-02-18T03:02:07.880Z,11.00
2019-02-18T03:04:36.538Z,11.23
2019-02-18T03:07:05.210Z,11.83
2019-02-18T03:09:33.916Z,11.83
2019-02-18T03:12:02.594Z,11.73
2019-02-18T03:14:31.411Z,12.97
2019-02-18T03:17:00.029Z,12.17
2019-02-18T03:19:28.720Z,12.23
2019-02-18T03:21:57.398Z,13.60
2019-02-18T03:24:26.072Z,12.27
2019-02-18T03:26:54.734Z,12.17
2019-02-18T03:29:28.920Z,12.47
2019-02-18T03:31:57.601Z,13.83
2019-02-18T03:34:29.503Z,14.33
2019-02-18T03:36:58.169Z,13.60
2019-02-18T03:39:26.841Z,13.67
2019-02-18T03:41:55.520Z,14.77
2019-02-18T03:44:24.222Z,15.03
2019-02-18T03:46:52.894Z,14.10
2019-02-18T03:49:21.603Z,14.53
2019-02-18T03:51:50.298Z,14.83
2019-02-18T03:54:18.991Z,13.80
2019-02-18T03:56:47.654Z,14.20
2019-02-18T03:59:16.320Z,14.93
2019-02-18T04:01:44.996Z,14.87
2019-02-18T04:04:13.651Z,14.57
2019-02-18T04:06:42.337Z,14.70
2019-02-18T04:09:11.013Z,14.40
2019-02-18T04:11:39.685Z,16.37
2019-02-18T04:14:08.353Z,16.33
2019-02-18T04:16:37.026Z,15.67
2019-02-18T04:19:05.700Z,16.77
2019-02-18T04:21:34.406Z,18.80
2019-02-18T04:24:03.092Z,17.70
2019-02-18T04:26:31.776Z,18.83
2019-02-18T04:29:00.473Z,18.80
2019-02-18T04:31:29.138Z,20.17
2019-02-18T04:33:57.793Z,19.47
2019-02-18T04:36:26.492Z,21.37
2019-02-18T04:38:55.158Z,21.03
2019-02-18T04:41:23.826Z,23.23
2019-02-18T04:43:52.543Z,22.87
2019-02-18T04:46:21.300Z,21.37
2019-02-18T04:48:49.972Z,32.50
2019-02-18T04:51:18.686Z,31.93
2019-02-18T04:53:47.350Z,42.13
2019-02-18T04:56:16.031Z,69.43
2019-02-18T04:58:44.703Z,69.80
2019-02-18T05:01:13.373Z,69.77
2019-02-18T05:03:42.061Z,56.10
2019-02-18T05:06:10.807Z,56.17
2019-02-18T05:08:39.487Z,49.80
2019-02-18T05:11:08.176Z,41.07
2019-02-18T05:13:36.844Z,45.23
2019-02-18T05:16:05.508Z,40.33
2019-02-18T05:18:34.192Z,31.97
2019-02-18T05:21:02.856Z,32.97
2019-02-18T05:23:31.522Z,31.40
2019-02-18T05:26:00.207Z,30.13
2019-02-18T05:28:28.882Z,32.33
2019-02-18T05:30:57.586Z,33.60
2019-02-18T05:33:26.245Z,33.80
2019-02-18T05:35:55.898Z,33.23
2019-02-18T05:38:25.010Z,31.13
2019-02-18T05:40:53.668Z,29.77
2019-02-18T05:43:22.354Z,28.43
2019-02-18T05:45:51.024Z,28.83
2019-02-18T05:48:19.700Z,25.77
2019-02-18T05:50:48.376Z,27.33
2019-02-18T05:53:17.064Z,28.87
2019-02-18T05:55:45.735Z,27.60
2019-02-18T05:58:14.444Z,29.97
2019-02-18T06:00:43.256Z,26.93
2019-02-18T06:03:11.929Z,31.13
2019-02-18T06:05:40.593Z,30.27
2019-02-18T06:08:09.278Z,29.80
2019-02-18T06:10:37.949Z,30.63
2019-02-18T06:13:06.614Z,42.03
2019-02-18T06:15:35.287Z,27.90
2019-02-18T06:18:03.951Z,28.33
2019-02-18T06:20:32.693Z,21.53
2019-02-18T06:23:01.447Z,20.43
2019-02-18T06:25:30.246Z,15.73
2019-02-18T06:27:58.958Z,14.30
2019-02-18T06:30:27.641Z,13.50
2019-02-18T06:32:56.301Z,11.77
2019-02-18T06:35:25.004Z,14.03
2019-02-18T06:37:53.679Z,11.03
2019-02-18T06:40:22.379Z,11.17
2019-02-18T06:42:51.138Z,10.80
2019-02-18T06:45:30.200Z,11.67
2019-02-18T06:48:00.472Z,13.70
2019-02-18T06:50:29.277Z,14.73
2019-02-18T06:52:58.008Z,17.03
2019-02-18T06:55:26.858Z,17.87
2019-02-18T06:57:59.836Z,18.73
2019-02-18T07:00:30.081Z,20.67
2019-02-18T07:03:00.363Z,19.17
2019-02-18T07:05:43.005Z,20.43
2019-02-18T07:08:13.344Z,18.83
2019-02-18T07:10:43.599Z,18.77
2019-02-18T07:13:13.354Z,18.67
2019-02-18T07:15:42.029Z,20.03
2019-02-18T07:18:10.739Z,17.67
2019-02-18T07:20:39.348Z,18.73
2019-02-18T07:23:08.113Z,18.40
2019-02-18T07:25:36.876Z,19.03
2019-02-18T07:28:05.551Z,18.13
2019-02-18T07:30:34.287Z,17.90
2019-02-18T07:33:03.621Z,19.63
2019-02-18T07:35:34.104Z,20.33
2019-02-18T07:38:02.782Z,19.70
2019-02-18T07:40:31.543Z,21.00
2019-02-18T07:43:01.723Z,20.80
2019-02-18T07:45:30.409Z,22.03
2019-02-18T07:47:59.086Z,22.10
2019-02-18T07:50:27.866Z,23.67
2019-02-18T07:52:56.621Z,25.50
2019-02-18T07:55:25.309Z,26.27
2019-02-18T07:57:53.988Z,28.80
2019-02-18T08:00:22.906Z,26.60
2019-02-18T08:02:51.680Z,28.23
2019-02-18T08:05:20.462Z,25.60
2019-02-18T08:07:49.163Z,26.47
2019-02-18T08:10:17.869Z,25.77
2019-02-18T08:12:46.542Z,26.60
2019-02-18T08:15:15.205Z,25.57
2019-02-18T08:17:43.947Z,24.27
2019-02-18T08:20:12.842Z,25.50
2019-02-18T08:22:41.534Z,26.07
2019-02-18T08:25:12.566Z,24.87
2019-02-18T08:27:41.389Z,24.23
2019-02-18T08:30:13.062Z,26.30
2019-02-18T08:32:41.737Z,24.67
2019-02-18T08:35:10.605Z,25.27
2019-02-18T08:37:39.398Z,24.23
2019-02-18T08:40:09.839Z,26.27
2019-02-18T08:42:38.534Z,30.70
2019-02-18T08:45:12.317Z,25.00
2019-02-18T08:47:42.141Z,26.43
2019-02-18T08:50:12.698Z,26.30
2019-02-18T08:52:41.584Z,24.30
2019-02-18T08:55:17.056Z,24.90
2019-02-18T08:57:45.935Z,27.23
2019-02-18T09:00:17.030Z,27.27
2019-02-18T09:02:45.789Z,25.97
2019-02-18T09:05:14.681Z,27.00
2019-02-18T09:07:44.019Z,26.60
2019-02-18T09:10:14.520Z,25.87
2019-02-18T09:12:43.540Z,26.20
2019-02-18T09:15:14.055Z,26.83
2019-02-18T09:17:42.761Z,27.70
2019-02-18T09:20:13.993Z,30.23
2019-02-18T09:23:02.361Z,27.83
2019-02-18T09:25:32.735Z,27.50
2019-02-18T09:28:01.525Z,25.40
2019-02-18T09:30:31.831Z,25.63
2019-02-18T09:33:00.643Z,26.07
2019-02-18T09:35:29.756Z,27.07
2019-02-18T09:37:58.433Z,26.13
2019-02-18T09:40:27.238Z,26.60
2019-02-18T09:42:56.214Z,27.30
2019-02-18T09:45:25.235Z,25.87
2019-02-18T09:47:54.453Z,26.70
2019-02-18T09:50:23.545Z,27.30
2019-02-18T09:52:52.231Z,28.33
2019-02-18T09:55:21.015Z,26.30
2019-02-18T09:57:49.794Z,26.63
2019-02-18T10:00:18.713Z,27.73
2019-02-18T10:02:47.630Z,27.70
2019-02-18T10:05:16.383Z,26.67
2019-02-18T10:07:45.137Z,28.40
2019-02-18T10:10:13.827Z,27.43
2019-02-18T10:12:42.542Z,27.47
2019-02-18T10:15:11.918Z,26.90
2019-02-18T10:17:40.676Z,27.90
2019-02-18T10:20:13.659Z,27.77
2019-02-18T10:22:42.416Z,27.80
2019-02-18T10:25:12.805Z,27.60
2019-02-18T10:27:41.624Z,27.80
2019-02-18T10:30:11.323Z,27.47
2019-02-18T10:32:40.010Z,27.90
2019-02-18T10:35:14.847Z,28.17
2019-02-18T10:37:43.637Z,30.00
2019-02-18T10:40:12.722Z,30.67
2019-02-18T10:42:41.435Z,31.03
2019-02-18T10:45:12.111Z,28.73
2019-02-18T10:47:41.547Z,28.87
2019-02-18T10:50:11.586Z,28.33
2019-02-18T10:52:40.300Z,30.97
2019-02-18T10:55:10.623Z,34.67
2019-02-18T10:57:39.848Z,34.77
2019-02-18T11:00:16.597Z,31.73
2019-02-18T11:02:45.738Z,31.82
2019-02-18T11:05:14.749Z,32.33
2019-02-18T11:07:43.581Z,34.30
2019-02-18T11:10:14.344Z,34.90
2019-02-18T11:12:43.037Z,33.65
2019-02-18T11:15:13.241Z,34.08
2019-02-18T11:17:42.415Z,32.93
2019-02-18T11:20:12.871Z,34.10
2019-02-18T11:22:43.110Z,37.67
2019-02-18T11:25:14.832Z,37.10
2019-02-18T11:27:43.540Z,34.88
2019-02-18T11:30:19.654Z,35.92
2019-02-18T11:32:48.352Z,33.63
2019-02-18T11:35:17.404Z,34.70
2019-02-18T11:37:46.125Z,36.90
2019-02-18T11:40:16.570Z,34.63
2019-02-18T11:42:45.394Z,34.00
2019-02-18T11:45:20.204Z,35.13
2019-02-18T11:47:49.520Z,35.17
2019-02-18T11:50:21.285Z,34.45
2019-02-18T11:52:50.619Z,35.58
2019-02-18T11:55:19.529Z,34.98
2019-02-18T11:57:48.304Z,33.28
2019-02-18T12:00:17.534Z,34.03
2019-02-18T12:02:46.710Z,35.83
2019-02-18T12:05:15.705Z,36.20
2019-02-18T12:07:44.760Z,34.73
2019-02-18T12:10:14.099Z,33.75
2019-02-18T12:12:43.216Z,35.65
2019-02-18T12:15:14.052Z,33.73
2019-02-18T12:17:43.067Z,35.92
2019-02-18T12:20:15.981Z,33.75
2019-02-18T12:22:44.823Z,33.30
2019-02-18T12:25:14.733Z,36.20
2019-02-18T12:27:44.241Z,36.03
2019-02-18T12:30:21.049Z,33.92
2019-02-18T12:32:49.873Z,32.85
2019-02-18T12:35:18.643Z,33.45
2019-02-18T12:37:54.956Z,34.20
2019-02-18T12:40:18.028Z,33.42
2019-02-18T12:42:46.899Z,33.73
2019-02-18T12:45:15.917Z,33.95
2019-02-18T12:47:44.605Z,34.53
2019-02-18T12:50:13.950Z,33.63
2019-02-18T12:52:42.896Z,33.75
2019-02-18T12:55:12.300Z,34.70
2019-02-18T12:57:41.057Z,33.28
2019-02-18T13:00:13.939Z,34.33
2019-02-18T13:02:44.694Z,32.20
2019-02-18T13:05:13.984Z,31.07
2019-02-18T13:07:42.760Z,32.05
2019-02-18T13:10:12.217Z,31.90
2019-02-18T13:12:41.538Z,30.08
2019-02-18T13:15:13.112Z,29.18
2019-02-18T13:17:42.808Z,31.30
2019-02-18T13:20:12.042Z,31.93
2019-02-18T13:22:40.845Z,31.50
2019-02-18T13:25:10.688Z,31.55
2019-02-18T13:27:39.380Z,30.82
2019-02-18T13:30:19.477Z,31.07
2019-02-18T13:32:48.316Z,31.07
2019-02-18T13:35:17.787Z,28.85
2019-02-18T13:37:46.579Z,30.70
2019-02-18T13:40:16.769Z,29.72
2019-02-18T13:42:46.170Z,30.62
2019-02-18T13:45:15.306Z,30.32
2019-02-18T13:47:45.109Z,30.17
2019-02-18T13:50:14.987Z,29.92
2019-02-18T13:52:43.770Z,31.00
2019-02-18T13:55:13.759Z,30.48
2019-02-18T13:57:42.979Z,30.65
2019-02-18T14:00:16.373Z,29.65
2019-02-18T14:02:45.145Z,30.50
2019-02-18T14:05:14.251Z,29.72
2019-02-18T14:07:42.942Z,30.05
2019-02-18T14:10:11.889Z,29.40
2019-02-18T14:12:40.841Z,30.88
2019-02-18T14:15:12.267Z,31.07
2019-02-18T14:17:40.964Z,29.50
2019-02-18T14:20:11.996Z,30.15
2019-02-18T14:22:40.959Z,28.02
2019-02-18T14:25:10.952Z,29.63
2019-02-18T14:27:39.651Z,28.70
2019-02-18T14:30:14.761Z,29.25
2019-02-18T14:32:43.734Z,31.30
2019-02-18T14:35:12.582Z,29.98
2019-02-18T14:37:41.370Z,28.87
2019-02-18T14:40:12.743Z,29.83
2019-02-18T14:42:41.410Z,29.40
2019-02-18T14:45:10.899Z,29.33
2019-02-18T14:47:39.590Z,28.90
2019-02-18T14:50:09.653Z,28.40
2019-02-18T14:52:38.389Z,29.03
2019-02-18T14:55:09.112Z,29.67
2019-02-18T14:57:37.868Z,30.40
2019-02-18T15:00:21.348Z,30.80
2019-02-18T15:02:51.455Z,27.63
2019-02-18T15:05:20.389Z,30.60
2019-02-18T15:07:49.278Z,30.13
2019-02-18T15:10:18.202Z,28.77
2019-02-18T15:12:46.904Z,29.10
2019-02-18T15:15:15.976Z,30.23
2019-02-18T15:17:44.763Z,27.23
2019-02-18T15:20:13.489Z,25.60
2019-02-18T15:22:42.246Z,28.13
2019-02-18T15:25:11.748Z,26.33
2019-02-18T15:27:40.436Z,26.23
2019-02-18T15:30:12.613Z,27.40
2019-02-18T15:32:41.393Z,27.80
2019-02-18T15:35:10.237Z,28.40
2019-02-18T15:37:38.976Z,26.87
2019-02-18T15:40:09.969Z,25.47
2019-02-18T15:42:42.148Z,20.70
2019-02-18T15:45:10.098Z,19.00
2019-02-18T15:47:39.239Z,19.83
2019-02-18T15:50:12.936Z,17.67
2019-02-18T15:52:41.710Z,18.17
2019-02-18T15:55:11.408Z,19.80
2019-02-18T15:57:40.189Z,17.67
2019-02-18T16:00:21.072Z,17.63
2019-02-18T16:02:50.272Z,17.43
2019-02-18T16:05:19.501Z,18.17
2019-02-18T16:07:48.278Z,18.13
2019-02-18T16:10:16.993Z,17.83
2019-02-18T16:12:50.735Z,18.43
2019-02-18T16:15:16.419Z,19.00
2019-02-18T16:17:45.672Z,19.33
2019-02-18T16:20:14.857Z,18.53
2019-02-18T16:22:43.660Z,21.13
2019-02-18T16:25:15.260Z,27.93
2019-02-18T16:27:43.934Z,42.90
2019-02-18T16:30:14.708Z,38.47
2019-02-18T16:32:43.748Z,35.20
2019-02-18T16:35:12.549Z,26.83
2019-02-18T16:37:41.904Z,21.17
2019-02-18T16:40:15.944Z,18.10
2019-02-18T16:42:44.760Z,20.03
2019-02-18T16:45:15.142Z,18.27
2019-02-18T16:47:43.908Z,22.70
2019-02-18T16:50:12.828Z,18.23
2019-02-18T16:52:41.497Z,18.03
2019-02-18T16:55:12.262Z,21.07
2019-02-18T16:57:40.950Z,21.10
2019-02-18T17:00:22.190Z,21.30
2019-02-18T17:02:51.136Z,20.50
2019-02-18T17:05:20.157Z,24.13
2019-02-18T17:07:48.830Z,29.60
2019-02-18T17:10:17.508Z,28.47
2019-02-18T17:12:46.558Z,27.90
2019-02-18T17:15:15.234Z,28.07
2019-02-18T17:17:43.943Z,28.47
2019-02-18T17:20:12.600Z,27.43
2019-02-18T17:22:41.457Z,23.93
2019-02-18T17:25:11.930Z,20.43
2019-02-18T17:27:40.610Z,20.07
2019-02-18T17:30:12.212Z,22.30
2019-02-18T17:32:41.008Z,21.23
2019-02-18T17:35:14.353Z,23.17
2019-02-18T17:37:43.032Z,24.00
2019-02-18T17:40:13.007Z,26.80
2019-02-18T17:42:42.103Z,26.33
2019-02-18T17:45:16.205Z,27.10
2019-02-18T17:47:44.873Z,25.27
2019-02-18T17:50:15.518Z,25.63
2019-02-18T17:52:44.258Z,27.37
2019-02-18T17:55:15.599Z,27.80
2019-02-18T17:57:44.271Z,26.67
2019-02-18T18:00:15.689Z,27.10
2019-02-18T18:02:44.373Z,24.80
2019-02-18T18:05:13.366Z,24.53
2019-02-18T18:07:42.107Z,24.53
2019-02-18T18:10:12.476Z,25.00
2019-02-18T18:12:41.167Z,25.83
2019-02-18T18:15:12.481Z,29.50
2019-02-18T18:17:41.204Z,29.10
2019-02-18T18:20:11.970Z,26.20
2019-02-18T18:22:41.308Z,24.83
2019-02-18T18:25:12.516Z,24.40
2019-02-18T18:27:41.206Z,20.23
2019-02-18T18:30:12.615Z,19.47
2019-02-18T18:32:41.323Z,19.27
2019-02-18T18:35:11.775Z,23.53
2019-02-18T18:37:40.490Z,25.60
2019-02-18T18:40:14.701Z,24.97
2019-02-18T18:42:43.406Z,25.80
2019-02-18T18:45:15.615Z,24.10
2019-02-18T18:47:44.483Z,23.53
2019-02-18T18:50:15.843Z,23.10
2019-02-18T18:52:44.882Z,19.77
2019-02-18T18:55:13.552Z,16.90
2019-02-18T18:57:42.228Z,17.67
2019-02-18T19:00:21.694Z,15.17
2019-02-18T19:02:50.362Z,17.60
2019-02-18T19:05:19.414Z,16.27
2019-02-18T19:07:48.117Z,15.23
2019-02-18T19:10:17.467Z,15.40
2019-02-18T19:12:46.138Z,14.40
2019-02-18T19:15:17.095Z,13.70
2019-02-18T19:17:45.786Z,14.60
2019-02-18T19:20:14.815Z,14.30
2019-02-18T19:22:43.502Z,16.20
2019-02-18T19:25:12.884Z,13.97
2019-02-18T19:27:41.643Z,14.00
2019-02-18T19:30:13.285Z,21.20
2019-02-18T19:32:41.976Z,26.43
2019-02-18T19:35:10.669Z,24.70
2019-02-18T19:37:39.358Z,25.67
2019-02-18T19:40:10.741Z,27.00
2019-02-18T19:42:39.449Z,25.73
2019-02-18T19:45:17.015Z,29.03
2019-02-18T19:47:45.721Z,30.47
2019-02-18T19:50:14.392Z,26.83
2019-02-18T19:52:43.070Z,26.53
2019-02-18T19:55:13.038Z,24.03
2019-02-18T19:57:41.703Z,22.67
2019-02-18T20:00:13.280Z,22.27
2019-02-18T20:02:41.951Z,20.50
2019-02-18T20:05:10.920Z,19.53
2019-02-18T20:07:39.601Z,21.47
2019-02-18T20:10:11.037Z,23.13
2019-02-18T20:12:39.827Z,18.20
2019-02-18T20:15:11.255Z,18.87
2019-02-18T20:17:39.918Z,15.87
2019-02-18T20:20:16.551Z,14.97
2019-02-18T20:22:45.223Z,13.67
2019-02-18T20:25:14.107Z,13.07
2019-02-18T20:27:42.750Z,13.43
2019-02-18T20:30:16.326Z,13.50
2019-02-18T20:32:44.988Z,12.60
2019-02-18T20:35:13.766Z,12.50
2019-02-18T20:37:42.439Z,12.70
2019-02-18T20:40:11.944Z,12.33
2019-02-18T20:42:42.456Z,13.03
2019-02-18T20:45:12.444Z,15.07
2019-02-18T20:47:41.422Z,16.17
2019-02-18T20:50:14.534Z,19.30
2019-02-18T20:52:43.199Z,16.73
2019-02-18T20:55:13.581Z,20.17
2019-02-18T20:57:43.336Z,16.63
2019-02-18T21:00:22.661Z,19.10
2019-02-18T21:02:51.325Z,19.37
2019-02-18T21:05:20.175Z,19.60
2019-02-18T21:07:49.234Z,17.73
2019-02-18T21:10:24.285Z,18.17
2019-02-18T21:12:53.070Z,17.03
2019-02-18T21:15:21.733Z,16.67
2019-02-18T21:17:50.399Z,15.70
2019-02-18T21:20:19.077Z,17.63
2019-02-18T21:22:48.128Z,17.63
2019-02-18T21:25:16.802Z,18.47
2019-02-18T21:27:45.473Z,18.93
2019-02-18T21:30:15.446Z,19.80
2019-02-18T21:32:44.107Z,17.70
2019-02-18T21:35:12.785Z,19.63
2019-02-18T21:37:42.011Z,19.97
2019-02-18T21:40:11.841Z,20.37
2019-02-18T21:42:40.528Z,19.83
2019-02-18T21:45:11.987Z,21.03
2019-02-18T21:47:40.693Z,19.73
2019-02-18T21:50:10.663Z,19.37
2019-02-18T21:52:39.618Z,17.00
2019-02-18T21:55:10.186Z,18.27
2019-02-18T21:57:39.216Z,18.83
2019-02-18T22:00:21.130Z,17.03
2019-02-18T22:02:50.213Z,15.93
2019-02-18T22:05:19.361Z,14.27
2019-02-18T22:07:48.510Z,14.93
2019-02-18T22:10:17.292Z,16.03
2019-02-18T22:12:45.956Z,16.63
2019-02-18T22:15:15.679Z,16.43
2019-02-18T22:17:44.585Z,15.30
2019-02-18T22:20:14.459Z,14.50
2019-02-18T22:22:43.149Z,15.57
2019-02-18T22:25:12.919Z,14.73
2019-02-18T22:27:41.698Z,14.50
2019-02-18T22:30:15.752Z,13.23
2019-02-18T22:32:44.514Z,12.80
2019-02-18T22:35:13.598Z,12.57
2019-02-18T22:37:42.502Z,12.17
2019-02-18T22:40:12.679Z,12.23
2019-02-18T22:42:41.651Z,12.13
2019-02-18T22:45:11.853Z,12.47
2019-02-18T22:47:40.584Z,12.07
2019-02-18T22:50:11.002Z,15.50
2019-02-18T22:52:39.752Z,13.57
2019-02-18T22:55:09.969Z,14.37
2019-02-18T22:57:38.723Z,12.70
2019-02-18T23:00:10.329Z,11.47
2019-02-18T23:02:40.408Z,13.17
2019-02-18T23:05:09.088Z,12.17
2019-02-18T23:07:37.812Z,11.13
2019-02-18T23:10:07.255Z,11.73
2019-02-18T23:12:35.939Z,11.43
2019-02-18T23:15:05.716Z,11.03
2019-02-18T23:17:34.405Z,11.80
2019-02-18T23:20:03.070Z,11.60
2019-02-18T23:22:32.065Z,11.90
2019-02-18T23:25:01.538Z,11.50
2019-02-18T23:27:30.318Z,11.93
2019-02-18T23:29:59.035Z,11.70
2019-02-18T23:32:27.730Z,11.97
2019-02-18T23:34:56.563Z,11.40
2019-02-18T23:37:25.842Z,12.13
2019-02-18T23:39:54.528Z,12.97
2019-02-18T23:42:23.219Z,12.90
2019-02-18T23:44:58.995Z,12.63
2019-02-18T23:47:22.342Z,11.43
2019-02-18T23:49:51.075Z,12.20
2019-02-18T23:52:19.745Z,11.40
2019-02-18T23:54:48.445Z,11.60
2019-02-18T23:57:17.142Z,11.73
2019-02-18T23:59:45.807Z,11.03
